sensor_id;sensor_type;location;lat;lon;timestamp;pressure;altitude;pressure_sealevel;temperature;humidity
11487;BME280;10510;47.942;9.442;2024-02-23T00:00:45;92774.09;;;4.52;100.00
11487;BME280;10510;47.942;9.442;2024-02-23T00:02:45;92771.88;;;4.49;100.00
11487;BME280;10510;47.942;9.442;2024-02-23T00:04:46;92782.22;;;4.49;100.00
11487;BME280;10510;47.942;9.442;2024-02-23T00:06:46;92780.44;;;4.50;100.00
11487;BME280;10510;47.942;9.442;2024-02-23T00:08:46;92776.09;;;4.50;100.00
11487;BME280;10510;47.942;9.442;2024-02-23T00:10:47;92774.69;;;4.48;100.00
11487;BME280;10510;47.942;9.442;2024-02-23T00:12:47;92770.69;;;4.45;100.00
11487;BME280;10510;47.942;9.442;2024-02-23T00:14:47;92778.06;;;4.48;100.00
11487;BME280;10510;47.942;9.442;2024-02-23T00:16:48;92786.00;;;4.47;100.00
11487;BME280;10510;47.942;9.442;2024-02-23T00:18:48;92786.59;;;4.42;100.00
11487;BME280;10510;47.942;9.442;2024-02-23T00:20:49;92795.13;;;4.43;100.00
11487;BME280;10510;47.942;9.442;2024-02-23T00:22:49;92807.28;;;4.42;100.00
11487;BME280;10510;47.942;9.442;2024-02-23T00:24:49;92799.91;;;4.39;100.00
11487;BME280;10510;47.942;9.442;2024-02-23T00:26:49;92814.41;;;4.40;100.00
11487;BME280;10510;47.942;9.442;2024-02-23T00:28:51;92808.63;;;4.38;100.00
11487;BME280;10510;47.942;9.442;2024-02-23T00:30:51;92805.44;;;4.36;100.00
11487;BME280;10510;47.942;9.442;2024-02-23T00:32:53;92808.84;;;4.37;100.00
11487;BME280;10510;47.942;9.442;2024-02-23T00:34:53;92808.41;;;4.33;100.00
11487;BME280;10510;47.942;9.442;2024-02-23T00:36:53;92813.97;;;4.30;100.00
11487;BME280;10510;47.942;9.442;2024-02-23T00:38:53;92803.75;;;4.22;100.00
11487;BME280;10510;47.942;9.442;2024-02-23T00:40:54;92808.44;;;4.12;100.00
11487;BME280;10510;47.942;9.442;2024-02-23T00:42:54;92809.22;;;4.05;100.00
11487;BME280;10510;47.942;9.442;2024-02-23T00:44:55;92807.19;;;4.01;100.00
11487;BME280;10510;47.942;9.442;2024-02-23T00:46:55;92807.56;;;3.98;100.00
11487;BME280;10510;47.942;9.442;2024-02-23T00:48:57;92784.50;;;3.96;100.00
11487;BME280;10510;47.942;9.442;2024-02-23T00:50:58;92806.34;;;3.94;100.00
11487;BME280;10510;47.942;9.442;2024-02-23T00:52:58;92796.63;;;3.96;100.00
11487;BME280;10510;47.942;9.442;2024-02-23T00:54:58;92811.13;;;3.97;100.00
11487;BME280;10510;47.942;9.442;2024-02-23T00:56:59;92809.75;;;3.94;100.00
11487;BME280;10510;47.942;9.442;2024-02-23T00:58:59;92809.75;;;3.94;100.00
11487;BME280;10510;47.942;9.442;2024-02-23T01:01:00;92814.09;;;3.94;100.00
11487;BME280;10510;47.942;9.442;2024-02-23T01:03:00;92821.06;;;3.93;100.00
11487;BME280;10510;47.942;9.442;2024-02-23T01:05:00;92820.09;;;3.94;100.00
11487;BME280;10510;47.942;9.442;2024-02-23T01:07:02;92822.66;;;3.94;100.00
11487;BME280;10510;47.942;9.442;2024-02-23T01:09:03;92811.69;;;3.92;100.00
11487;BME280;10510;47.942;9.442;2024-02-23T01:11:04;92819.63;;;3.91;100.00
11487;BME280;10510;47.942;9.442;2024-02-23T01:13:05;92815.47;;;3.90;100.00
11487;BME280;10510;47.942;9.442;2024-02-23T01:15:05;92818.84;;;3.90;100.00
11487;BME280;10510;47.942;9.442;2024-02-23T01:17:06;92814.66;;;3.89;100.00
11487;BME280;10510;47.942;9.442;2024-02-23T01:19:06;92810.28;;;3.90;100.00
11487;BME280;10510;47.942;9.442;2024-02-23T01:21:08;92811.47;;;3.87;100.00
11487;BME280;10510;47.942;9.442;2024-02-23T01:23:08;92806.50;;;3.85;100.00
11487;BME280;10510;47.942;9.442;2024-02-23T01:25:08;92817.63;;;3.86;100.00
11487;BME280;10510;47.942;9.442;2024-02-23T01:27:09;92827.16;;;3.85;100.00
11487;BME280;10510;47.942;9.442;2024-02-23T01:29:09;92833.13;;;3.86;100.00
11487;BME280;10510;47.942;9.442;2024-02-23T01:31:10;92849.44;;;3.86;100.00
11487;BME280;10510;47.942;9.442;2024-02-23T01:33:11;92857.19;;;3.86;100.00
11487;BME280;10510;47.942;9.442;2024-02-23T01:35:11;92868.88;;;3.82;100.00
11487;BME280;10510;47.942;9.442;2024-02-23T01:37:11;92866.47;;;3.81;100.00
11487;BME280;10510;47.942;9.442;2024-02-23T01:39:12;92872.63;;;3.80;100.00
11487;BME280;10510;47.942;9.442;2024-02-23T01:41:12;92873.59;;;3.79;100.00
11487;BME280;10510;47.942;9.442;2024-02-23T01:43:13;92872.63;;;3.80;100.00
11487;BME280;10510;47.942;9.442;2024-02-23T01:45:13;92891.53;;;3.80;100.00
11487;BME280;10510;47.942;9.442;2024-02-23T01:47:15;92877.97;;;3.78;100.00
11487;BME280;10510;47.942;9.442;2024-02-23T01:49:16;92873.97;;;3.76;100.00
11487;BME280;10510;47.942;9.442;2024-02-23T01:51:16;92878.53;;;3.74;100.00
11487;BME280;10510;47.942;9.442;2024-02-23T01:53:17;92883.09;;;3.72;100.00
11487;BME280;10510;47.942;9.442;2024-02-23T01:55:23;92886.66;;;3.71;100.00
11487;BME280;10510;47.942;9.442;2024-02-23T01:57:23;92897.97;;;3.70;100.00
11487;BME280;10510;47.942;9.442;2024-02-23T01:59:25;92895.94;;;3.65;100.00
11487;BME280;10510;47.942;9.442;2024-02-23T02:01:25;92889.53;;;3.61;100.00
11487;BME280;10510;47.942;9.442;2024-02-23T02:03:26;92889.09;;;3.57;100.00
11487;BME280;10510;47.942;9.442;2024-02-23T02:05:26;92896.44;;;3.54;100.00
11487;BME280;10510;47.942;9.442;2024-02-23T02:07:27;92889.84;;;3.51;100.00
11487;BME280;10510;47.942;9.442;2024-02-23T02:09:27;92896.16;;;3.49;100.00
11487;BME280;10510;47.942;9.442;2024-02-23T02:11:27;92893.16;;;3.45;100.00
11487;BME280;10510;47.942;9.442;2024-02-23T02:13:28;92891.53;;;3.44;100.00
11487;BME280;10510;47.942;9.442;2024-02-23T02:15:28;92888.53;;;3.40;100.00
11487;BME280;10510;47.942;9.442;2024-02-23T02:17:29;92880.34;;;3.37;100.00
11487;BME280;10510;47.942;9.442;2024-02-23T02:19:29;92877.97;;;3.35;100.00
11487;BME280;10510;47.942;9.442;2024-02-23T02:21:31;92899.78;;;3.33;100.00
11487;BME280;10510;47.942;9.442;2024-02-23T02:23:31;92894.16;;;3.29;100.00
11487;BME280;10510;47.942;9.442;2024-02-23T02:25:31;92893.72;;;3.26;100.00
11487;BME280;10510;47.942;9.442;2024-02-23T02:27:32;92911.00;;;3.25;100.00
11487;BME280;10510;47.942;9.442;2024-02-23T02:29:32;92907.97;;;3.22;100.00
11487;BME280;10510;47.942;9.442;2024-02-23T02:31:33;92900.41;;;3.20;100.00
11487;BME280;10510;47.942;9.442;2024-02-23T02:33:37;92889.28;;;3.19;100.00
11487;BME280;10510;47.942;9.442;2024-02-23T02:35:37;92895.59;;;3.17;100.00
11487;BME280;10510;47.942;9.442;2024-02-23T02:37:38;92898.38;;;3.15;100.00
11487;BME280;10510;47.942;9.442;2024-02-23T02:39:38;92897.13;;;3.11;100.00
11487;BME280;10510;47.942;9.442;2024-02-23T02:41:38;92896.50;;;3.09;100.00
11487;BME280;10510;47.942;9.442;2024-02-23T02:43:38;92894.28;;;3.06;100.00
11487;BME280;10510;47.942;9.442;2024-02-23T02:45:39;92895.25;;;3.05;100.00
11487;BME280;10510;47.942;9.442;2024-02-23T02:47:39;92892.88;;;3.04;100.00
11487;BME280;10510;47.942;9.442;2024-02-23T02:49:40;92900.63;;;3.04;100.00
11487;BME280;10510;47.942;9.442;2024-02-23T02:51:40;92903.56;;;3.01;100.00
11487;BME280;10510;47.942;9.442;2024-02-23T02:53:40;92894.38;;;2.98;100.00
11487;BME280;10510;47.942;9.442;2024-02-23T02:55:42;92891.97;;;2.96;100.00
11487;BME280;10510;47.942;9.442;2024-02-23T02:57:44;92889.75;;;2.93;100.00
11487;BME280;10510;47.942;9.442;2024-02-23T02:59:44;92879.19;;;2.88;100.00
11487;BME280;10510;47.942;9.442;2024-02-23T03:01:46;92879.50;;;2.85;100.00
11487;BME280;10510;47.942;9.442;2024-02-23T03:03:47;92870.38;;;2.83;100.00
11487;BME280;10510;47.942;9.442;2024-02-23T03:05:47;92865.56;;;2.80;100.00
11487;BME280;10510;47.942;9.442;2024-02-23T03:07:47;92869.31;;;2.77;100.00
11487;BME280;10510;47.942;9.442;2024-02-23T03:09:48;92878.19;;;2.75;100.00
11487;BME280;10510;47.942;9.442;2024-02-23T03:11:50;92875.97;;;2.71;100.00
11487;BME280;10510;47.942;9.442;2024-02-23T03:13:51;92873.13;;;2.66;100.00
11487;BME280;10510;47.942;9.442;2024-02-23T03:15:52;92869.31;;;2.62;100.00
11487;BME280;10510;47.942;9.442;2024-02-23T03:17:52;92873.03;;;2.60;100.00
11487;BME280;10510;47.942;9.442;2024-02-23T03:19:54;92878.56;;;2.57;100.00
11487;BME280;10510;47.942;9.442;2024-02-23T03:21:55;92889.22;;;2.54;100.00
11487;BME280;10510;47.942;9.442;2024-02-23T03:23:55;92881.66;;;2.52;100.00
11487;BME280;10510;47.942;9.442;2024-02-23T03:25:55;92899.91;;;2.50;100.00
11487;BME280;10510;47.942;9.442;2024-02-23T03:27:55;92888.31;;;2.46;100.00
11487;BME280;10510;47.942;9.442;2024-02-23T03:29:59;92893.66;;;2.45;100.00
11487;BME280;10510;47.942;9.442;2024-02-23T03:32:02;92892.22;;;2.42;100.00
11487;BME280;10510;47.942;9.442;2024-02-23T03:34:03;92886.44;;;2.40;100.00
11487;BME280;10510;47.942;9.442;2024-02-23T03:36:04;92885.00;;;2.38;100.00
11487;BME280;10510;47.942;9.442;2024-02-23T03:38:04;92887.94;;;2.35;100.00
11487;BME280;10510;47.942;9.442;2024-02-23T03:40:05;92882.19;;;2.33;100.00
11487;BME280;10510;47.942;9.442;2024-02-23T03:42:06;92887.34;;;2.33;100.00
11487;BME280;10510;47.942;9.442;2024-02-23T03:44:06;92890.28;;;2.30;100.00
11487;BME280;10510;47.942;9.442;2024-02-23T03:46:08;92904.75;;;2.31;100.00
11487;BME280;10510;47.942;9.442;2024-02-23T03:48:08;92889.44;;;2.29;100.00
11487;BME280;10510;47.942;9.442;2024-02-23T03:50:08;92894.00;;;2.27;100.00
11487;BME280;10510;47.942;9.442;2024-02-23T03:52:09;92883.19;;;2.23;100.00
11487;BME280;10510;47.942;9.442;2024-02-23T03:54:09;92891.13;;;2.22;100.00
11487;BME280;10510;47.942;9.442;2024-02-23T03:56:09;92899.22;;;2.19;100.00
11487;BME280;10510;47.942;9.442;2024-02-23T03:58:10;92898.56;;;2.17;100.00
11487;BME280;10510;47.942;9.442;2024-02-23T04:00:11;92893.41;;;2.17;100.00
11487;BME280;10510;47.942;9.442;2024-02-23T04:02:11;92889.41;;;2.14;100.00
11487;BME280;10510;47.942;9.442;2024-02-23T04:04:11;92886.22;;;2.12;100.00
11487;BME280;10510;47.942;9.442;2024-02-23T04:06:12;92888.16;;;2.10;100.00
11487;BME280;10510;47.942;9.442;2024-02-23T04:08:12;92882.38;;;2.08;100.00
11487;BME280;10510;47.942;9.442;2024-02-23T04:10:12;92876.63;;;2.06;100.00
11487;BME280;10510;47.942;9.442;2024-02-23T04:12:16;92878.56;;;2.04;100.00
11487;BME280;10510;47.942;9.442;2024-02-23T04:14:16;92873.56;;;2.02;100.00
11487;BME280;10510;47.942;9.442;2024-02-23T04:16:16;92882.13;;;2.03;100.00
11487;BME280;10510;47.942;9.442;2024-02-23T04:18:17;92874.56;;;2.01;100.00
11487;BME280;10510;47.942;9.442;2024-02-23T04:20:17;92869.41;;;2.01;100.00
11487;BME280;10510;47.942;9.442;2024-02-23T04:22:17;92848.50;;;1.96;100.00
11487;BME280;10510;47.942;9.442;2024-02-23T04:24:18;92843.53;;;1.95;100.00
11487;BME280;10510;47.942;9.442;2024-02-23T04:26:18;92862.38;;;1.95;100.00
11487;BME280;10510;47.942;9.442;2024-02-23T04:28:18;92857.22;;;1.95;100.00
11487;BME280;10510;47.942;9.442;2024-02-23T04:30:19;92856.41;;;1.95;100.00
11487;BME280;10510;47.942;9.442;2024-02-23T04:32:19;92851.25;;;1.95;100.00
11487;BME280;10510;47.942;9.442;2024-02-23T04:34:19;92845.47;;;1.93;100.00
11487;BME280;10510;47.942;9.442;2024-02-23T04:36:20;92845.66;;;1.91;100.00
11487;BME280;10510;47.942;9.442;2024-02-23T04:38:23;92835.34;;;1.91;100.00
11487;BME280;10510;47.942;9.442;2024-02-23T04:40:23;92834.53;;;1.91;100.00
11487;BME280;10510;47.942;9.442;2024-02-23T04:42:23;92835.34;;;1.91;100.00
11487;BME280;10510;47.942;9.442;2024-02-23T04:44:24;92829.38;;;1.91;100.00
11487;BME280;10510;47.942;9.442;2024-02-23T04:46:24;92836.50;;;1.89;100.00
11487;BME280;10510;47.942;9.442;2024-02-23T04:48:24;92840.81;;;1.88;100.00
11487;BME280;10510;47.942;9.442;2024-02-23T04:50:25;92848.75;;;1.87;100.00
11487;BME280;10510;47.942;9.442;2024-02-23T04:52:25;92854.69;;;1.87;100.00
11487;BME280;10510;47.942;9.442;2024-02-23T04:54:25;92875.50;;;1.86;100.00
11487;BME280;10510;47.942;9.442;2024-02-23T04:56:26;92864.22;;;1.87;100.00
11487;BME280;10510;47.942;9.442;2024-02-23T04:58:26;92856.28;;;1.88;100.00
11487;BME280;10510;47.942;9.442;2024-02-23T05:00:26;92852.91;;;1.88;100.00
11487;BME280;10510;47.942;9.442;2024-02-23T05:02:33;92844.84;;;1.91;100.00
11487;BME280;10510;47.942;9.442;2024-02-23T05:04:35;92837.75;;;1.93;100.00
11487;BME280;10510;47.942;9.442;2024-02-23T05:06:35;92832.44;;;1.94;100.00
11487;BME280;10510;47.942;9.442;2024-02-23T05:08:35;92839.97;;;1.96;100.00
11487;BME280;10510;47.942;9.442;2024-02-23T05:10:35;92847.69;;;1.96;100.00
11487;BME280;10510;47.942;9.442;2024-02-23T05:12:36;92862.00;;;1.98;100.00
11487;BME280;10510;47.942;9.442;2024-02-23T05:14:36;92869.75;;;1.98;100.00
11487;BME280;10510;47.942;9.442;2024-02-23T05:16:36;92865.38;;;1.99;100.00
11487;BME280;10510;47.942;9.442;2024-02-23T05:18:37;92876.34;;;2.01;100.00
11487;BME280;10510;47.942;9.442;2024-02-23T05:20:37;92879.53;;;2.03;100.00
11487;BME280;10510;47.942;9.442;2024-02-23T05:22:41;92866.81;;;2.01;100.00
11487;BME280;10510;47.942;9.442;2024-02-23T05:24:41;92861.81;;;2.00;100.00
11487;BME280;10510;47.942;9.442;2024-02-23T05:26:42;92868.75;;;1.99;100.00
11487;BME280;10510;47.942;9.442;2024-02-23T05:28:44;92872.13;;;2.00;100.00
11487;BME280;10510;47.942;9.442;2024-02-23T05:30:44;92866.03;;;2.01;100.00
11487;BME280;10510;47.942;9.442;2024-02-23T05:32:44;92862.47;;;2.02;100.00
11487;BME280;10510;47.942;9.442;2024-02-23T05:34:45;92863.09;;;2.04;100.00
11487;BME280;10510;47.942;9.442;2024-02-23T05:36:46;92850.56;;;2.01;100.00
11487;BME280;10510;47.942;9.442;2024-02-23T05:38:46;92850.38;;;2.02;100.00
11487;BME280;10510;47.942;9.442;2024-02-23T05:40:46;92839.28;;;2.02;100.00
11487;BME280;10510;47.942;9.442;2024-02-23T05:42:48;92837.50;;;2.02;100.00
11487;BME280;10510;47.942;9.442;2024-02-23T05:44:49;92850.38;;;2.02;100.00
11487;BME280;10510;47.942;9.442;2024-02-23T05:46:49;92854.56;;;2.03;100.00
11487;BME280;10510;47.942;9.442;2024-02-23T05:48:49;92852.78;;;2.04;100.00
11487;BME280;10510;47.942;9.442;2024-02-23T05:50:50;92865.47;;;2.05;100.00
11487;BME280;10510;47.942;9.442;2024-02-23T05:52:50;92856.97;;;2.05;100.00
11487;BME280;10510;47.942;9.442;2024-02-23T05:54:50;92866.31;;;2.06;100.00
11487;BME280;10510;47.942;9.442;2024-02-23T05:56:52;92871.47;;;2.06;100.00
11487;BME280;10510;47.942;9.442;2024-02-23T05:58:52;92882.13;;;2.03;100.00
11487;BME280;10510;47.942;9.442;2024-02-23T06:00:53;92877.13;;;2.01;100.00
11487;BME280;10510;47.942;9.442;2024-02-23T06:02:53;92875.53;;;2.00;100.00
11487;BME280;10510;47.942;9.442;2024-02-23T06:04:53;92875.53;;;2.00;100.00
11487;BME280;10510;47.942;9.442;2024-02-23T06:06:54;92876.69;;;1.98;100.00
11487;BME280;10510;47.942;9.442;2024-02-23T06:08:54;92870.53;;;1.99;100.00
11487;BME280;10510;47.942;9.442;2024-02-23T06:10:54;92863.00;;;1.97;100.00
11487;BME280;10510;47.942;9.442;2024-02-23T06:12:55;92852.50;;;1.99;100.00
11487;BME280;10510;47.942;9.442;2024-02-23T06:14:55;92853.50;;;1.98;100.00
11487;BME280;10510;47.942;9.442;2024-02-23T06:16:57;92848.34;;;1.98;100.00
11487;BME280;10510;47.942;9.442;2024-02-23T06:18:57;92847.53;;;1.97;100.00
11487;BME280;10510;47.942;9.442;2024-02-23T06:20:58;92845.75;;;1.98;100.00
11487;BME280;10510;47.942;9.442;2024-02-23T06:22:58;92844.97;;;1.97;100.00
11487;BME280;10510;47.942;9.442;2024-02-23T06:24:59;92846.56;;;1.98;100.00
11487;BME280;10510;47.942;9.442;2024-02-23T06:26:59;92842.38;;;1.97;100.00
11487;BME280;10510;47.942;9.442;2024-02-23T06:28:59;92837.03;;;1.99;100.00
11487;BME280;10510;47.942;9.442;2024-02-23T06:31:00;92855.06;;;1.99;100.00
11487;BME280;10510;47.942;9.442;2024-02-23T06:33:00;92859.44;;;1.98;100.00
11487;BME280;10510;47.942;9.442;2024-02-23T06:35:00;92871.69;;;1.96;100.00
11487;BME280;10510;47.942;9.442;2024-02-23T06:37:02;92886.53;;;1.94;100.00
11487;BME280;10510;47.942;9.442;2024-02-23T06:39:03;92891.69;;;1.94;100.00
11487;BME280;10510;47.942;9.442;2024-02-23T06:41:04;92887.34;;;1.95;100.00
11487;BME280;10510;47.942;9.442;2024-02-23T06:43:05;92889.91;;;1.95;100.00
11487;BME280;10510;47.942;9.442;2024-02-23T06:45:06;92896.84;;;1.94;100.00
11487;BME280;10510;47.942;9.442;2024-02-23T06:47:07;92897.00;;;1.93;100.00
11487;BME280;10510;47.942;9.442;2024-02-23T06:49:08;92888.63;;;1.91;100.00
11487;BME280;10510;47.942;9.442;2024-02-23T06:51:08;92892.19;;;1.90;100.00
11487;BME280;10510;47.942;9.442;2024-02-23T06:53:09;92879.16;;;1.91;100.00
11487;BME280;10510;47.942;9.442;2024-02-23T06:55:09;92885.25;;;1.90;100.00
11487;BME280;10510;47.942;9.442;2024-02-23T06:57:10;92883.47;;;1.91;100.00
11487;BME280;10510;47.942;9.442;2024-02-23T06:59:10;92883.47;;;1.91;100.00
11487;BME280;10510;47.942;9.442;2024-02-23T07:01:10;92892.03;;;1.91;100.00
11487;BME280;10510;47.942;9.442;2024-02-23T07:03:13;92887.19;;;1.88;100.00
11487;BME280;10510;47.942;9.442;2024-02-23T07:05:14;92885.44;;;1.89;100.00
11487;BME280;10510;47.942;9.442;2024-02-23T07:07:14;92901.88;;;1.88;100.00
11487;BME280;10510;47.942;9.442;2024-02-23T07:09:15;92908.63;;;1.89;100.00
11487;BME280;10510;47.942;9.442;2024-02-23T07:11:15;92912.97;;;1.88;100.00
11487;BME280;10510;47.942;9.442;2024-02-23T07:13:15;92910.38;;;1.88;100.00
11487;BME280;10510;47.942;9.442;2024-02-23T07:15:17;92912.00;;;1.89;100.00
11487;BME280;10510;47.942;9.442;2024-02-23T07:17:17;92899.94;;;1.90;100.00
11487;BME280;10510;47.942;9.442;2024-02-23T07:19:19;92890.41;;;1.90;100.00
11487;BME280;10510;47.942;9.442;2024-02-23T07:21:20;92895.41;;;1.92;100.00
11487;BME280;10510;47.942;9.442;2024-02-23T07:23:20;92891.06;;;1.92;100.00
11487;BME280;10510;47.942;9.442;2024-02-23T07:25:22;92905.72;;;1.92;100.00
11487;BME280;10510;47.942;9.442;2024-02-23T07:27:23;92912.31;;;1.94;100.00
11487;BME280;10510;47.942;9.442;2024-02-23T07:29:23;92902.94;;;1.93;100.00
11487;BME280;10510;47.942;9.442;2024-02-23T07:31:23;92896.84;;;1.94;100.00
11487;BME280;10510;47.942;9.442;2024-02-23T07:33:24;92898.44;;;1.95;100.00
11487;BME280;10510;47.942;9.442;2024-02-23T07:35:24;92905.38;;;1.95;100.00
11487;BME280;10510;47.942;9.442;2024-02-23T07:37:26;92902.59;;;1.96;100.00
11487;BME280;10510;47.942;9.442;2024-02-23T07:39:27;92906.16;;;1.95;100.00
11487;BME280;10510;47.942;9.442;2024-02-23T07:41:27;92917.47;;;1.94;100.00
11487;BME280;10510;47.942;9.442;2024-02-23T07:43:28;92917.28;;;1.96;100.00
11487;BME280;10510;47.942;9.442;2024-02-23T07:45:29;92920.84;;;1.95;100.00
11487;BME280;10510;47.942;9.442;2024-02-23T07:47:30;92926.59;;;1.97;100.00
11487;BME280;10510;47.942;9.442;2024-02-23T07:49:31;92930.94;;;1.96;100.00
11487;BME280;10510;47.942;9.442;2024-02-23T07:51:32;92918.88;;;1.97;100.00
11487;BME280;10510;47.942;9.442;2024-02-23T07:53:32;92921.28;;;1.98;100.00
11487;BME280;10510;47.942;9.442;2024-02-23T07:55:33;92928.81;;;2.00;100.00
11487;BME280;10510;47.942;9.442;2024-02-23T07:57:33;92929.66;;;2.00;100.00
11487;BME280;10510;47.942;9.442;2024-02-23T07:59:34;92931.09;;;2.03;100.00
11487;BME280;10510;47.942;9.442;2024-02-23T08:01:35;92917.38;;;2.02;100.00
11487;BME280;10510;47.942;9.442;2024-02-23T08:03:35;92932.69;;;2.04;100.00
11487;BME280;10510;47.942;9.442;2024-02-23T08:05:36;92933.47;;;2.04;100.00
11487;BME280;10510;47.942;9.442;2024-02-23T08:07:36;92930.75;;;2.06;100.00
11487;BME280;10510;47.942;9.442;2024-02-23T08:09:36;92921.22;;;2.07;100.00
11487;BME280;10510;47.942;9.442;2024-02-23T08:11:37;92924.41;;;2.09;100.00
11487;BME280;10510;47.942;9.442;2024-02-23T08:13:37;92926.03;;;2.10;100.00
11487;BME280;10510;47.942;9.442;2024-02-23T08:15:37;92931.19;;;2.10;100.00
11487;BME280;10510;47.942;9.442;2024-02-23T08:17:38;92921.84;;;2.09;100.00
11487;BME280;10510;47.942;9.442;2024-02-23T08:19:38;92925.84;;;2.11;100.00
11487;BME280;10510;47.942;9.442;2024-02-23T08:21:39;92922.31;;;2.12;100.00
11487;BME280;10510;47.942;9.442;2024-02-23T08:23:39;92935.81;;;2.14;100.00
11487;BME280;10510;47.942;9.442;2024-02-23T08:25:39;92933.88;;;2.16;100.00
11487;BME280;10510;47.942;9.442;2024-02-23T08:27:43;92937.09;;;2.18;100.00
11487;BME280;10510;47.942;9.442;2024-02-23T08:29:43;92925.63;;;2.21;100.00
11487;BME280;10510;47.942;9.442;2024-02-23T08:31:43;92922.22;;;2.20;100.00
11487;BME280;10510;47.942;9.442;2024-02-23T08:33:44;92927.38;;;2.20;100.00
11487;BME280;10510;47.942;9.442;2024-02-23T08:35:44;92920.28;;;2.22;100.00
11487;BME280;10510;47.942;9.442;2024-02-23T08:37:44;92919.13;;;2.25;100.00
11487;BME280;10510;47.942;9.442;2024-02-23T08:39:45;92925.28;;;2.24;100.00
11487;BME280;10510;47.942;9.442;2024-02-23T08:41:45;92920.91;;;2.24;100.00
11487;BME280;10510;47.942;9.442;2024-02-23T08:43:46;92918.34;;;2.24;100.00
11487;BME280;10510;47.942;9.442;2024-02-23T08:45:46;92918.00;;;2.27;100.00
11487;BME280;10510;47.942;9.442;2024-02-23T08:47:46;92923.78;;;2.30;100.00
11487;BME280;10510;47.942;9.442;2024-02-23T08:49:47;92919.41;;;2.30;100.00
11487;BME280;10510;47.942;9.442;2024-02-23T08:51:47;92921.81;;;2.32;100.00
11487;BME280;10510;47.942;9.442;2024-02-23T08:53:48;92914.72;;;2.34;100.00
11487;BME280;10510;47.942;9.442;2024-02-23T08:55:48;92915.34;;;2.36;100.00
11487;BME280;10510;47.942;9.442;2024-02-23T08:57:49;92929.84;;;2.37;100.00
11487;BME280;10510;47.942;9.442;2024-02-23T08:59:50;92930.63;;;2.37;100.00
11487;BME280;10510;47.942;9.442;2024-02-23T09:01:50;92930.47;;;2.39;100.00
11487;BME280;10510;47.942;9.442;2024-02-23T09:03:50;92930.28;;;2.40;100.00
11487;BME280;10510;47.942;9.442;2024-02-23T09:05:51;92919.81;;;2.42;100.00
11487;BME280;10510;47.942;9.442;2024-02-23T09:07:51;92917.66;;;2.45;100.00
11487;BME280;10510;47.942;9.442;2024-02-23T09:09:51;92916.53;;;2.48;100.00
11487;BME280;10510;47.942;9.442;2024-02-23T09:11:51;92929.56;;;2.46;100.00
11487;BME280;10510;47.942;9.442;2024-02-23T09:13:52;92926.84;;;2.48;100.00
11487;BME280;10510;47.942;9.442;2024-02-23T09:15:52;92930.84;;;2.50;100.00
11487;BME280;10510;47.942;9.442;2024-02-23T09:17:53;92936.81;;;2.51;100.00
11487;BME280;10510;47.942;9.442;2024-02-23T09:19:53;92939.03;;;2.54;100.00
11487;BME280;10510;47.942;9.442;2024-02-23T09:21:53;92935.47;;;2.55;100.00
11487;BME280;10510;47.942;9.442;2024-02-23T09:23:54;92931.72;;;2.58;100.00
11487;BME280;10510;47.942;9.442;2024-02-23T09:25:55;92930.22;;;2.63;100.00
11487;BME280;10510;47.942;9.442;2024-02-23T09:27:58;92928.88;;;2.67;100.00
11487;BME280;10510;47.942;9.442;2024-02-23T09:29:58;92931.47;;;2.67;100.00
11487;BME280;10510;47.942;9.442;2024-02-23T09:31:59;92926.31;;;2.67;100.00
11487;BME280;10510;47.942;9.442;2024-02-23T09:34:00;92936.28;;;2.70;100.00
11487;BME280;10510;47.942;9.442;2024-02-23T09:36:00;92938.84;;;2.70;100.00
11487;BME280;10510;47.942;9.442;2024-02-23T09:38:01;92935.13;;;2.73;100.00
11487;BME280;10510;47.942;9.442;2024-02-23T09:40:01;92929.16;;;2.72;100.00
11487;BME280;10510;47.942;9.442;2024-02-23T09:42:02;92923.66;;;2.76;100.00
11487;BME280;10510;47.942;9.442;2024-02-23T09:44:03;92934.59;;;2.78;100.00
11487;BME280;10510;47.942;9.442;2024-02-23T09:46:03;92935.75;;;2.75;100.00
11487;BME280;10510;47.942;9.442;2024-02-23T09:48:05;92935.13;;;2.73;100.00
11487;BME280;10510;47.942;9.442;2024-02-23T09:50:08;92936.91;;;2.72;100.00
11487;BME280;10510;47.942;9.442;2024-02-23T09:52:09;92931.59;;;2.74;100.00
11487;BME280;10510;47.942;9.442;2024-02-23T09:54:10;92928.81;;;2.76;100.00
11487;BME280;10510;47.942;9.442;2024-02-23T09:56:10;92938.50;;;2.73;100.00
11487;BME280;10510;47.942;9.442;2024-02-23T09:58:12;92941.91;;;2.74;100.00
11487;BME280;10510;47.942;9.442;2024-02-23T10:00:17;92933.19;;;2.75;100.00
11487;BME280;10510;47.942;9.442;2024-02-23T10:02:18;92932.19;;;2.76;100.00
11487;BME280;10510;47.942;9.442;2024-02-23T10:04:19;92923.94;;;2.81;100.00
11487;BME280;10510;47.942;9.442;2024-02-23T10:06:20;92919.41;;;2.83;100.00
11487;BME280;10510;47.942;9.442;2024-02-23T10:08:20;92921.78;;;2.84;100.00
11487;BME280;10510;47.942;9.442;2024-02-23T10:10:32;92921.00;;;2.84;100.00
11487;BME280;10510;47.942;9.442;2024-02-23T10:12:33;92918.84;;;2.87;100.00
11487;BME280;10510;47.942;9.442;2024-02-23T10:14:34;92920.91;;;2.92;100.00
11487;BME280;10510;47.942;9.442;2024-02-23T10:16:34;92925.09;;;2.93;100.00
11487;BME280;10510;47.942;9.442;2024-02-23T10:18:37;92929.25;;;2.94;100.00
11487;BME280;10510;47.942;9.442;2024-02-23T10:20:39;92936.19;;;2.93;100.00
11487;BME280;10510;47.942;9.442;2024-02-23T10:22:40;92937.28;;;2.99;100.00
11487;BME280;10510;47.942;9.442;2024-02-23T10:24:42;92950.44;;;3.04;100.00
11487;BME280;10510;47.942;9.442;2024-02-23T10:26:42;92956.69;;;3.10;100.00
11487;BME280;10510;47.942;9.442;2024-02-23T10:28:43;92949.56;;;3.12;100.00
11487;BME280;10510;47.942;9.442;2024-02-23T10:30:43;92947.00;;;3.12;100.00
11487;BME280;10510;47.942;9.442;2024-02-23T10:32:43;92937.47;;;3.12;100.00
11487;BME280;10510;47.942;9.442;2024-02-23T10:34:47;92940.91;;;3.19;100.00
11487;BME280;10510;47.942;9.442;2024-02-23T10:36:47;92938.97;;;3.22;100.00
11487;BME280;10510;47.942;9.442;2024-02-23T10:38:52;92939.91;;;3.21;100.00